Time;durP1;ratioP1;P1;durP2;ratioP2;P2;SDS_P1;SDS_P2;PMS_P1;PMS_P2;Temp;Humidity;BMP_temperature;BMP_pressure;BME280_temperature;BME280_humidity;BME280_pressure;Samples;Min_cycle;Max_cycle;Signal;HPM_P1;HPM_P2
2022/03/23 00:04:24;;;;;;;6.55;4.38;;;10.70;68.40;;;;;;20597835;28;20090;-67
2022/03/23 00:14:28;;;;;;;7.47;3.38;;;10.70;68.40;;;;;;20596804;28;20047;-67
2022/03/23 00:24:31;;;;;;;9.63;4.05;;;10.60;68.60;;;;;;20596280;28;20149;-65
2022/03/23 00:34:35;;;;;;;7.57;3.10;;;10.50;69.10;;;;;;20596413;28;20054;-68
2022/03/23 00:44:37;;;;;;;5.18;3.10;;;10.40;69.10;;;;;;20592995;28;20086;-66
2022/03/23 00:54:38;;;;;;;5.70;3.35;;;10.40;68.90;;;;;;20594019;28;20054;-65
2022/03/23 01:04:41;;;;;;;6.43;3.53;;;10.30;69.30;;;;;;20592873;28;20511;-68
2022/03/23 01:14:43;;;;;;;5.93;2.95;;;10.20;69.30;;;;;;20592246;28;20057;-70
2022/03/23 01:24:45;;;;;;;6.13;2.92;;;10.10;69.70;;;;;;20591176;28;20055;-67
2022/03/23 01:34:48;;;;;;;7.35;3.30;;;10.10;69.40;;;;;;20590072;28;20133;-66
2022/03/23 01:44:50;;;;;;;7.45;3.95;;;10.00;69.90;;;;;;20589907;28;20429;-67
2022/03/23 01:54:53;;;;;;;7.90;3.53;;;10.00;70.70;;;;;;20589080;28;20126;-65
2022/03/23 02:04:55;;;;;;;7.70;3.53;;;9.80;71.30;;;;;;20588237;28;20090;-70
2022/03/23 02:15:09;;;;;;;9.02;3.35;;;9.80;71.80;;;;;;20588893;28;20051;-65
2022/03/23 02:25:10;;;;;;;4.97;3.58;;;9.70;72.50;;;;;;20587106;28;20094;-65
2022/03/23 02:35:12;;;;;;;6.30;3.80;;;9.70;72.60;;;;;;20586561;28;20086;-64
2022/03/23 02:45:14;;;;;;;9.52;3.65;;;9.70;72.90;;;;;;20585614;28;20058;-66
2022/03/23 03:05:36;;;;;;;6.53;3.28;;;9.60;72.40;;;;;;20586542;28;20055;-69
2022/03/23 03:15:39;;;;;;;6.85;2.83;;;9.70;72.20;;;;;;20601199;28;20051;-64
2022/03/23 03:25:42;;;;;;;5.38;3.47;;;9.80;71.70;;;;;;20599602;28;20051;-66
2022/03/23 03:35:46;;;;;;;6.20;3.00;;;9.80;71.60;;;;;;20599229;28;20050;-69
2022/03/23 03:45:48;;;;;;;5.60;2.80;;;9.80;71.10;;;;;;20598134;28;20134;-70
2022/03/23 03:55:51;;;;;;;6.43;3.25;;;9.90;70.80;;;;;;20596969;28;20067;-63
2022/03/23 04:05:53;;;;;;;10.13;3.20;;;9.80;70.60;;;;;;20596794;28;20046;-64
2022/03/23 04:16:14;;;;;;;4.07;2.47;;;9.80;70.30;;;;;;20596983;28;20131;-64
2022/03/23 04:26:15;;;;;;;4.18;2.45;;;9.80;70.20;;;;;;20595402;28;20131;-65
2022/03/23 04:36:21;;;;;;;8.25;3.13;;;9.70;70.30;;;;;;20609419;28;20054;-67
2022/03/23 04:46:27;;;;;;;3.88;2.60;;;9.70;70.20;;;;;;20593683;28;20047;-69
2022/03/23 04:56:34;;;;;;;4.72;2.80;;;9.80;70.20;;;;;;20593043;28;20073;-63
2022/03/23 05:06:37;;;;;;;5.72;2.72;;;9.80;70.30;;;;;;20591793;28;20106;-63
2022/03/23 05:16:39;;;;;;;5.07;2.78;;;9.80;70.00;;;;;;20591503;28;20065;-62
2022/03/23 05:26:42;;;;;;;8.95;2.97;;;9.80;70.00;;;;;;20590552;28;20059;-62
2022/03/23 05:36:44;;;;;;;5.03;2.63;;;9.70;70.30;;;;;;20589759;28;20051;-62
2022/03/23 05:46:45;;;;;;;6.85;2.97;;;9.70;71.00;;;;;;20590096;28;20062;-63
2022/03/23 05:56:48;;;;;;;6.05;3.53;;;9.60;71.30;;;;;;20589407;28;20447;-63
2022/03/23 06:06:50;;;;;;;4.00;2.75;;;9.60;71.40;;;;;;20588534;28;20051;-62
2022/03/23 06:16:52;;;;;;;4.53;2.53;;;9.50;71.40;;;;;;20587246;28;20468;-63
2022/03/23 06:26:54;;;;;;;4.03;2.38;;;9.50;70.30;;;;;;20587035;28;20086;-68
2022/03/23 06:36:56;;;;;;;3.63;2.10;;;9.50;70.00;;;;;;20586623;28;20492;-64
2022/03/23 06:46:58;;;;;;;3.45;2.40;;;9.30;69.50;;;;;;20607042;28;20507;-66
2022/03/23 06:57:05;;;;;;;6.20;2.30;;;9.20;69.50;;;;;;20626147;28;20055;-64
2022/03/23 07:07:07;;;;;;;3.58;1.88;;;9.30;69.10;;;;;;20612032;28;20046;-68
2022/03/23 07:17:09;;;;;;;4.80;2.00;;;9.40;68.90;;;;;;20609762;28;20050;-67
2022/03/23 07:27:11;;;;;;;4.32;1.55;;;9.40;68.40;;;;;;20611046;28;20061;-64
2022/03/23 07:37:12;;;;;;;5.03;1.88;;;9.40;68.00;;;;;;20610016;28;20055;-62
2022/03/23 07:47:15;;;;;;;3.80;1.50;;;9.50;67.70;;;;;;20610227;28;20043;-65
2022/03/23 07:57:16;;;;;;;3.38;1.40;;;9.50;67.70;;;;;;20603550;28;20050;-66
2022/03/23 08:07:19;;;;;;;2.88;1.35;;;9.60;67.60;;;;;;20597892;28;20141;-61
2022/03/23 08:17:20;;;;;;;4.35;1.38;;;9.70;67.60;;;;;;20596433;28;20205;-62
2022/03/23 08:27:22;;;;;;;4.45;1.27;;;9.80;67.30;;;;;;20596430;28;20483;-66
2022/03/23 08:37:24;;;;;;;6.05;2.08;;;10.00;66.90;;;;;;20595530;28;20058;-68
2022/03/23 08:47:27;;;;;;;3.20;1.52;;;10.20;66.40;;;;;;20594884;28;20042;-67
2022/03/23 08:57:29;;;;;;;4.85;1.63;;;10.30;66.10;;;;;;20594437;28;20487;-66
2022/03/23 09:07:33;;;;;;;4.88;1.45;;;10.50;65.90;;;;;;20592261;28;20047;-65
2022/03/23 09:17:42;;;;;;;4.40;1.90;;;10.60;65.70;;;;;;20632591;28;20050;-57
2022/03/23 09:27:52;;;;;;;2.58;1.20;;;12.60;62.40;;;;;;20666279;28;20077;-60
2022/03/23 09:37:56;;;;;;;3.40;1.83;;;13.30;59.80;;;;;;20667528;28;20054;-53
2022/03/23 09:47:58;;;;;;;1.95;1.20;;;13.70;58.30;;;;;;20660450;28;20050;-60
2022/03/23 09:58:02;;;;;;;3.72;1.67;;;13.20;59.00;;;;;;20669557;28;20106;-57
2022/03/23 10:09:06;;;;;;;4.78;1.65;;;11.90;61.60;;;;;;20667226;28;20479;-59
2022/03/23 10:19:09;;;;;;;3.97;1.33;;;12.50;60.00;;;;;;20577082;28;20058;-63
2022/03/23 10:29:22;;;;;;;5.75;1.50;;;12.30;60.70;;;;;;20577234;28;20062;-68
2022/03/23 10:39:31;;;;;;;2.35;1.33;;;12.60;61.10;;;;;;20577295;28;20054;-64
2022/03/23 10:49:38;;;;;;;1.92;1.30;;;13.50;59.20;;;;;;20653712;28;20054;-61
2022/03/23 10:59:45;;;;;;;1.70;1.25;;;13.40;59.00;;;;;;20666180;28;20058;-58
2022/03/23 11:20:07;;;;;;;2.60;1.15;;;13.40;58.50;;;;;;20665169;28;20046;-66
2022/03/23 11:30:10;;;;;;;3.83;1.30;;;13.40;58.10;;;;;;20670980;28;20105;-57
2022/03/23 11:40:12;;;;;;;2.60;1.17;;;13.50;57.60;;;;;;20678445;28;20061;-58
2022/03/23 11:50:41;;;;;;;3.63;1.58;;;13.70;56.80;;;;;;20678371;28;20054;-61
2022/03/23 12:00:51;;;;;;;3.43;1.93;;;14.10;56.10;;;;;;20677528;28;20054;-61
2022/03/23 12:10:52;;;;;;;8.43;1.10;;;14.20;55.90;;;;;;20676755;28;20053;-61
2022/03/23 12:20:53;;;;;;;1.55;0.85;;;14.90;55.30;;;;;;20676648;28;20050;-60
2022/03/23 12:30:58;;;;;;;1.50;1.10;;;14.80;54.10;;;;;;20675368;28;20438;-61
2022/03/23 12:41:04;;;;;;;1.25;1.00;;;14.60;54.10;;;;;;20673713;28;20093;-60
2022/03/23 13:01:36;;;;;;;2.45;0.90;;;14.10;54.50;;;;;;20674522;28;20137;-61
2022/03/23 13:11:41;;;;;;;1.33;0.88;;;14.10;54.50;;;;;;20670712;28;20046;-61
2022/03/23 13:21:46;;;;;;;2.28;1.25;;;14.00;54.60;;;;;;20671422;28;20086;-61
2022/03/23 13:31:48;;;;;;;4.22;1.60;;;14.00;54.50;;;;;;20670584;28;20097;-61
2022/03/23 13:52:11;;;;;;;4.47;1.38;;;14.20;53.80;;;;;;20668778;28;20216;-60
2022/03/23 14:02:13;;;;;;;2.30;1.35;;;14.20;53.60;;;;;;20669585;28;20054;-61
2022/03/23 14:12:19;;;;;;;5.80;1.88;;;14.20;53.80;;;;;;20670410;28;20328;-62
2022/03/23 14:22:25;;;;;;;5.70;3.47;;;14.10;55.90;;;;;;20669110;28;20058;-67
2022/03/23 14:32:52;;;;;;;6.78;3.05;;;13.70;59.00;;;;;;20667826;28;20561;-60
2022/03/23 14:42:59;;;;;;;8.88;3.15;;;13.40;60.90;;;;;;20577129;28;20051;-63
2022/03/23 14:53:02;;;;;;;5.20;2.80;;;13.20;63.00;;;;;;20576910;28;20085;-63
2022/03/23 15:03:03;;;;;;;7.95;3.40;;;13.00;64.20;;;;;;20580272;28;20101;-62
2022/03/23 15:13:16;;;;;;;7.47;3.75;;;12.90;65.60;;;;;;20610042;28;20050;-63
2022/03/23 15:23:18;;;;;;;6.53;3.42;;;12.70;66.50;;;;;;20681137;28;20490;-64
2022/03/23 15:33:20;;;;;;;6.50;3.78;;;13.10;65.90;;;;;;20679800;28;20058;-62
2022/03/23 15:43:21;;;;;;;8.57;4.05;;;13.20;65.30;;;;;;20679918;28;20438;-63
2022/03/23 15:53:22;;;;;;;7.30;3.55;;;13.20;65.80;;;;;;20678811;28;20386;-63
2022/03/23 16:03:24;;;;;;;10.40;3.58;;;13.40;65.90;;;;;;20678444;28;20054;-61
2022/03/23 16:13:26;;;;;;;6.40;3.15;;;13.40;65.70;;;;;;20678440;28;20047;-62
2022/03/23 16:23:28;;;;;;;6.30;3.33;;;13.40;66.10;;;;;;20676515;28;20062;-64
2022/03/23 16:33:29;;;;;;;6.70;3.50;;;13.20;66.50;;;;;;20676551;28;20058;-62
2022/03/23 16:43:30;;;;;;;3.40;2.67;;;13.30;66.20;;;;;;20673870;28;20061;-63
2022/03/23 16:53:31;;;;;;;3.63;2.22;;;13.00;66.50;;;;;;20674459;28;20050;-61
2022/03/23 17:13:54;;;;;;;6.35;2.72;;;12.90;66.90;;;;;;20672623;28;20395;-60
2022/03/23 17:23:55;;;;;;;11.15;2.53;;;12.90;66.60;;;;;;20671506;28;20063;-63
2022/03/23 17:33:56;;;;;;;12.02;2.95;;;12.80;66.10;;;;;;20670275;28;20042;-61
2022/03/23 17:43:57;;;;;;;8.90;2.85;;;12.70;66.00;;;;;;20669576;28;20073;-62
2022/03/23 17:53:59;;;;;;;11.10;3.10;;;12.60;66.20;;;;;;20684187;28;20050;-61
2022/03/23 18:04:04;;;;;;;8.85;2.78;;;12.40;66.80;;;;;;20668843;28;20046;-61
2022/03/23 18:14:07;;;;;;;3.00;1.95;;;12.30;66.80;;;;;;20667654;28;20053;-63
2022/03/23 18:24:08;;;;;;;8.65;2.65;;;12.30;67.30;;;;;;20667663;28;20101;-68
2022/03/23 18:34:09;;;;;;;6.25;2.75;;;13.30;65.60;;;;;;20667163;28;20057;-57
2022/03/23 18:44:11;;;;;;;6.50;2.72;;;14.40;62.80;;;;;;20665448;28;20055;-61
2022/03/23 18:54:13;;;;;;;8.80;2.05;;;14.60;61.60;;;;;;20666071;28;20415;-59
2022/03/23 19:04:14;;;;;;;6.50;2.67;;;14.80;60.80;;;;;;20666277;28;20050;-58
2022/03/23 19:14:15;;;;;;;4.68;2.55;;;15.10;60.30;;;;;;20664823;28;20111;-61
2022/03/23 19:24:16;;;;;;;5.38;2.85;;;14.70;61.00;;;;;;20678647;28;20054;-65
2022/03/23 19:34:18;;;;;;;7.57;3.03;;;12.90;65.60;;;;;;20665164;28;20055;-64
2022/03/23 19:44:20;;;;;;;8.43;4.32;;;12.30;67.30;;;;;;20662973;28;20054;-67
2022/03/23 19:54:22;;;;;;;22.08;9.27;;;11.90;68.30;;;;;;20673615;28;20106;-60
2022/03/23 20:04:25;;;;;;;7.28;3.80;;;14.00;64.10;;;;;;20678243;28;20054;-55
2022/03/23 20:14:26;;;;;;;4.55;3.63;;;14.70;62.00;;;;;;20678792;28;20478;-68
2022/03/23 20:24:28;;;;;;;7.18;2.95;;;13.50;64.80;;;;;;20677429;28;20057;-75
2022/03/23 20:34:29;;;;;;;5.80;3.38;;;12.00;69.10;;;;;;20676664;28;20050;-69
2022/03/23 20:44:32;;;;;;;6.55;4.00;;;11.40;71.20;;;;;;20677246;28;20100;-65
2022/03/23 20:54:34;;;;;;;7.28;4.32;;;11.10;72.40;;;;;;20676254;28;20054;-65
2022/03/23 21:04:36;;;;;;;8.02;3.97;;;10.80;73.20;;;;;;20674016;28;20415;-65
2022/03/23 21:14:38;;;;;;;8.32;4.47;;;10.70;73.50;;;;;;20674238;28;20418;-66
2022/03/23 21:24:40;;;;;;;9.15;5.38;;;10.80;74.10;;;;;;20671956;28;20069;-70
2022/03/23 21:34:42;;;;;;;8.48;5.20;;;10.80;73.80;;;;;;20670963;28;20066;-69
2022/03/23 21:44:43;;;;;;;7.18;3.85;;;10.70;73.90;;;;;;20669537;28;20086;-65
2022/03/23 21:54:45;;;;;;;6.15;3.30;;;10.70;73.10;;;;;;20670428;28;20533;-70
2022/03/23 22:04:47;;;;;;;4.63;3.00;;;10.50;73.00;;;;;;20668024;28;20077;-70
2022/03/23 22:14:49;;;;;;;6.22;3.08;;;10.30;72.50;;;;;;20668052;28;20410;-69
2022/03/23 22:24:51;;;;;;;5.13;3.10;;;10.20;72.00;;;;;;20668661;28;20137;-71
2022/03/23 22:34:53;;;;;;;4.45;3.08;;;10.10;71.80;;;;;;20668116;28;20050;-72
2022/03/23 22:44:55;;;;;;;4.80;3.10;;;10.00;71.10;;;;;;20667146;28;20484;-68
2022/03/23 22:54:57;;;;;;;4.07;2.85;;;10.00;70.20;;;;;;20677170;28;20050;-68
2022/03/23 23:04:59;;;;;;;6.90;3.10;;;9.90;69.70;;;;;;20678191;28;20050;-69
2022/03/23 23:15:01;;;;;;;7.07;2.80;;;9.80;69.10;;;;;;20672910;28;20047;-69
2022/03/23 23:25:03;;;;;;;5.00;3.38;;;9.90;68.50;;;;;;20672448;28;20498;-71
2022/03/23 23:35:06;;;;;;;5.65;2.75;;;9.80;67.90;;;;;;20681364;28;20101;-72
2022/03/23 23:45:09;;;;;;;4.80;3.00;;;9.80;68.00;;;;;;20680946;28;20502;-71
2022/03/23 23:55:11;;;;;;;14.25;5.47;;;9.80;67.80;;;;;;20679283;28;20125;-69
